createdAt,value
2017-03-03T00:00:56.183Z,4
2017-03-03T00:01:57.399Z,4
2017-03-03T00:02:58.649Z,4
2017-03-03T00:03:59.921Z,4
2017-03-03T00:05:01.200Z,4
2017-03-03T00:06:02.422Z,0
2017-03-03T00:07:03.666Z,4
2017-03-03T00:08:04.907Z,0
2017-03-03T00:09:06.141Z,0
2017-03-03T00:10:07.405Z,0
2017-03-03T00:11:08.678Z,0
2017-03-03T00:12:09.990Z,0
2017-03-03T00:13:11.273Z,0
2017-03-03T00:14:12.521Z,0
2017-03-03T00:15:13.776Z,0
2017-03-03T00:16:15.053Z,0
2017-03-03T00:17:16.365Z,0
2017-03-03T00:18:17.623Z,0
2017-03-03T00:19:18.864Z,0
2017-03-03T00:20:20.108Z,0
2017-03-03T00:21:21.383Z,0
2017-03-03T00:22:22.609Z,0
2017-03-03T00:23:23.864Z,0
2017-03-03T00:24:25.141Z,0
2017-03-03T00:25:26.447Z,0
2017-03-03T00:26:27.685Z,0
2017-03-03T00:27:28.918Z,0
2017-03-03T00:28:30.165Z,0
2017-03-03T00:29:31.432Z,0
2017-03-03T00:30:32.673Z,0
2017-03-03T00:31:33.942Z,0
2017-03-03T00:32:35.175Z,0
2017-03-03T00:33:36.402Z,0
2017-03-03T00:34:37.724Z,0
2017-03-03T00:35:38.906Z,0
2017-03-03T00:36:40.210Z,0
2017-03-03T00:37:41.514Z,0
2017-03-03T00:38:42.740Z,0
2017-03-03T00:39:43.973Z,0
2017-03-03T00:40:45.241Z,0
2017-03-03T00:41:46.534Z,0
2017-03-03T00:42:47.774Z,0
2017-03-03T00:43:49.018Z,0
2017-03-03T00:44:50.272Z,0
2017-03-03T00:45:51.501Z,0
2017-03-03T00:46:52.750Z,0
2017-03-03T00:47:54.016Z,0
2017-03-03T00:48:55.310Z,0
2017-03-03T00:49:56.539Z,0
2017-03-03T00:50:57.868Z,0
2017-03-03T00:51:59.126Z,0
2017-03-03T00:53:00.356Z,0
2017-03-03T00:54:01.679Z,0
2017-03-03T00:55:02.907Z,0
2017-03-03T00:56:04.147Z,0
2017-03-03T00:57:05.393Z,0
2017-03-03T00:58:06.629Z,0
2017-03-03T00:59:07.910Z,0
2017-03-03T01:00:09.143Z,0
2017-03-03T01:01:10.478Z,0
2017-03-03T01:02:11.796Z,0
2017-03-03T01:03:13.060Z,0
2017-03-03T01:04:14.318Z,0
2017-03-03T01:05:15.560Z,0
2017-03-03T01:06:16.797Z,0
2017-03-03T01:07:18.138Z,0
2017-03-03T01:08:19.473Z,0
2017-03-03T01:09:20.722Z,0
2017-03-03T01:10:21.945Z,0
2017-03-03T01:11:23.182Z,0
2017-03-03T01:12:24.418Z,0
2017-03-03T01:13:25.651Z,0
2017-03-03T01:14:26.900Z,0
2017-03-03T01:15:28.146Z,0
2017-03-03T01:16:29.547Z,0
2017-03-03T01:17:30.790Z,0
2017-03-03T01:18:32.015Z,0
2017-03-03T01:19:33.247Z,0
2017-03-03T01:20:34.495Z,0
2017-03-03T01:21:35.720Z,0
2017-03-03T01:22:36.950Z,0
2017-03-03T01:23:38.183Z,0
2017-03-03T01:24:39.431Z,0
2017-03-03T01:25:40.659Z,0
2017-03-03T01:26:41.908Z,0
2017-03-03T01:27:43.176Z,0
2017-03-03T01:28:44.447Z,0
2017-03-03T01:29:45.674Z,0
2017-03-03T01:30:46.923Z,0
2017-03-03T01:31:48.125Z,0
2017-03-03T01:32:49.357Z,0
2017-03-03T01:33:50.633Z,0
2017-03-03T01:34:51.924Z,0
2017-03-03T01:35:53.133Z,0
2017-03-03T01:36:54.370Z,0
2017-03-03T01:37:55.619Z,0
2017-03-03T01:38:56.868Z,0
2017-03-03T01:39:58.087Z,0
2017-03-03T01:40:59.376Z,0
2017-03-03T01:42:00.607Z,0
2017-03-03T01:43:01.844Z,0
2017-03-03T01:44:03.067Z,0
2017-03-03T01:45:04.313Z,0
2017-03-03T01:46:05.554Z,0
2017-03-03T01:47:06.778Z,0
2017-03-03T01:48:08.051Z,0
2017-03-03T01:49:09.304Z,0
2017-03-03T01:50:10.548Z,0
2017-03-03T01:51:11.824Z,0
2017-03-03T01:52:13.075Z,0
2017-03-03T01:53:14.289Z,0
2017-03-03T01:54:15.531Z,0
2017-03-03T01:55:16.778Z,0
2017-03-03T01:56:18.043Z,0
2017-03-03T01:57:19.266Z,0
2017-03-03T01:58:20.503Z,0
2017-03-03T01:59:21.754Z,0
2017-03-03T02:00:22.978Z,0
2017-03-03T02:01:24.222Z,0
2017-03-03T02:02:25.520Z,0
2017-03-03T02:03:26.781Z,0
2017-03-03T02:04:28.014Z,0
2017-03-03T02:05:29.239Z,0
2017-03-03T02:06:30.602Z,0
2017-03-03T02:07:31.835Z,0
2017-03-03T02:08:33.192Z,0
2017-03-03T02:09:34.420Z,0
2017-03-03T02:10:35.752Z,0
2017-03-03T02:11:37.023Z,0
2017-03-03T02:12:38.313Z,0
2017-03-03T02:13:39.554Z,0
2017-03-03T02:14:40.810Z,0
2017-03-03T02:15:42.060Z,0
2017-03-03T02:16:43.302Z,0
2017-03-03T02:17:44.525Z,0
2017-03-03T02:18:45.776Z,0
2017-03-03T02:19:47.001Z,0
2017-03-03T02:20:48.244Z,0
2017-03-03T02:21:49.593Z,0
2017-03-03T02:22:50.825Z,0
2017-03-03T02:23:52.051Z,0
2017-03-03T02:24:53.280Z,0
2017-03-03T02:25:54.513Z,0
2017-03-03T02:26:55.791Z,0
2017-03-03T02:27:57.063Z,0
2017-03-03T02:28:58.298Z,0
2017-03-03T02:29:59.527Z,0
2017-03-03T02:31:00.766Z,0
2017-03-03T02:32:01.998Z,0
2017-03-03T02:33:03.313Z,0
2017-03-03T02:34:04.548Z,0
2017-03-03T02:35:05.801Z,0
2017-03-03T02:36:07.023Z,0
2017-03-03T02:37:08.262Z,0
2017-03-03T02:38:09.580Z,0
2017-03-03T02:39:10.739Z,0
2017-03-03T02:40:11.994Z,0
2017-03-03T02:41:13.265Z,0
2017-03-03T02:42:14.496Z,0
2017-03-03T02:43:15.727Z,0
2017-03-03T02:44:16.966Z,0
2017-03-03T02:45:18.206Z,0
2017-03-03T02:46:19.452Z,0
2017-03-03T02:47:20.691Z,0
2017-03-03T02:48:22.022Z,0
2017-03-03T02:49:23.259Z,0
2017-03-03T02:50:24.501Z,0
2017-03-03T02:51:25.731Z,0
2017-03-03T02:52:26.997Z,0
2017-03-03T02:53:28.279Z,0
2017-03-03T02:54:29.504Z,0
2017-03-03T02:55:30.747Z,0
2017-03-03T02:56:31.983Z,0
2017-03-03T02:57:33.205Z,0
2017-03-03T02:58:34.510Z,0
2017-03-03T02:59:35.761Z,0
2017-03-03T03:00:37.103Z,0
2017-03-03T03:01:38.332Z,0
2017-03-03T03:02:39.632Z,0
2017-03-03T03:03:40.890Z,0
2017-03-03T03:04:42.162Z,0
2017-03-03T03:05:43.413Z,0
2017-03-03T03:06:44.670Z,0
2017-03-03T03:07:45.909Z,0
2017-03-03T03:08:47.139Z,0
2017-03-03T03:09:48.386Z,0
2017-03-03T03:10:49.783Z,0
2017-03-03T03:11:51.049Z,0
2017-03-03T03:12:52.285Z,0
2017-03-03T03:13:53.569Z,0
2017-03-03T03:14:54.807Z,0
2017-03-03T03:15:56.042Z,0
2017-03-03T03:16:57.284Z,0
2017-03-03T03:17:58.588Z,0
2017-03-03T03:18:59.823Z,0
2017-03-03T03:20:01.111Z,0
2017-03-03T03:21:02.335Z,0
2017-03-03T03:22:03.567Z,0
2017-03-03T03:23:04.807Z,0
2017-03-03T03:24:06.073Z,0
2017-03-03T03:25:07.304Z,0
2017-03-03T03:26:08.534Z,0
2017-03-03T03:27:09.790Z,0
2017-03-03T03:28:11.031Z,0
2017-03-03T03:29:12.240Z,0
2017-03-03T03:30:13.476Z,0
2017-03-03T03:31:14.731Z,0
2017-03-03T03:32:16.129Z,0
2017-03-03T03:33:17.339Z,0
2017-03-03T03:34:18.591Z,0
2017-03-03T03:35:19.804Z,0
2017-03-03T03:36:21.051Z,0
2017-03-03T03:37:22.283Z,0
2017-03-03T03:38:23.669Z,0
2017-03-03T03:39:24.900Z,0
2017-03-03T03:40:26.128Z,0
2017-03-03T03:41:27.356Z,0
2017-03-03T03:42:28.599Z,0
2017-03-03T03:43:29.863Z,0
2017-03-03T03:44:31.210Z,0
2017-03-03T03:45:32.498Z,0
2017-03-03T03:46:33.735Z,0
2017-03-03T03:47:34.979Z,0
2017-03-03T03:48:36.214Z,0
2017-03-03T03:49:37.496Z,0
2017-03-03T03:50:38.731Z,0
2017-03-03T03:51:39.975Z,0
2017-03-03T03:52:41.221Z,0
2017-03-03T03:53:42.445Z,0
2017-03-03T03:54:43.685Z,0
2017-03-03T03:55:44.948Z,0
2017-03-03T03:56:46.179Z,0
2017-03-03T03:57:47.437Z,0
2017-03-03T03:58:48.645Z,0
2017-03-03T03:59:49.873Z,0
2017-03-03T04:00:51.103Z,0
2017-03-03T04:01:52.335Z,0
2017-03-03T04:02:53.583Z,0
2017-03-03T04:03:54.804Z,0
2017-03-03T04:04:56.063Z,0
2017-03-03T04:05:57.302Z,0
2017-03-03T04:06:58.543Z,0
2017-03-03T04:07:59.805Z,0
2017-03-03T04:09:01.034Z,0
2017-03-03T04:10:02.276Z,0
2017-03-03T04:11:03.529Z,0
2017-03-03T04:12:04.724Z,0
2017-03-03T04:13:05.975Z,0
2017-03-03T04:14:07.210Z,0
2017-03-03T04:15:08.444Z,0
2017-03-03T04:16:09.703Z,0
2017-03-03T04:17:10.931Z,0
2017-03-03T04:18:12.238Z,0
2017-03-03T04:19:13.669Z,0
2017-03-03T04:20:14.906Z,0
2017-03-03T04:21:16.131Z,0
2017-03-03T04:22:17.375Z,0
2017-03-03T04:23:18.642Z,0
2017-03-03T04:24:20.027Z,0
2017-03-03T04:25:21.272Z,0
2017-03-03T04:26:22.507Z,0
2017-03-03T04:27:23.736Z,0
2017-03-03T04:28:25.011Z,0
2017-03-03T04:29:26.321Z,0
2017-03-03T04:30:27.555Z,0
2017-03-03T04:31:28.786Z,0
2017-03-03T04:32:30.019Z,0
2017-03-03T04:33:31.266Z,0
2017-03-03T04:34:32.487Z,0
2017-03-03T04:35:33.804Z,0
2017-03-03T04:36:35.181Z,0
2017-03-03T04:37:36.450Z,0
2017-03-03T04:38:37.684Z,0
2017-03-03T04:39:38.914Z,0
2017-03-03T04:40:40.145Z,0
2017-03-03T04:41:41.402Z,0
2017-03-03T04:42:42.636Z,0
2017-03-03T04:43:43.858Z,0
2017-03-03T04:44:45.089Z,0
2017-03-03T04:45:46.318Z,0
2017-03-03T04:46:47.557Z,0
2017-03-03T04:47:48.795Z,0
2017-03-03T04:48:50.045Z,0
2017-03-03T04:49:51.355Z,0
2017-03-03T04:50:52.583Z,0
2017-03-03T04:51:53.812Z,0
2017-03-03T04:52:55.049Z,0
2017-03-03T04:53:56.274Z,0
2017-03-03T04:54:57.518Z,0
2017-03-03T04:55:58.748Z,0
2017-03-03T04:57:00.189Z,0
2017-03-03T04:58:01.422Z,0
2017-03-03T04:59:02.677Z,0
2017-03-03T05:00:04.006Z,0
2017-03-03T05:01:05.256Z,0
2017-03-03T05:02:06.466Z,0
2017-03-03T05:03:07.696Z,0
2017-03-03T05:04:08.914Z,0
2017-03-03T05:05:10.153Z,0
2017-03-03T05:06:11.411Z,0
2017-03-03T05:07:12.625Z,0
2017-03-03T05:08:13.979Z,0
2017-03-03T05:09:15.280Z,0
2017-03-03T05:10:16.527Z,0
2017-03-03T05:11:17.770Z,0
2017-03-03T05:12:19.181Z,0
2017-03-03T05:13:20.447Z,0
2017-03-03T05:14:21.683Z,0
2017-03-03T05:15:22.935Z,0
2017-03-03T05:16:24.175Z,0
2017-03-03T05:17:25.402Z,0
2017-03-03T05:18:26.631Z,0
2017-03-03T05:19:27.909Z,0
2017-03-03T05:20:29.145Z,0
2017-03-03T05:21:30.379Z,0
2017-03-03T05:22:31.629Z,0
2017-03-03T05:23:32.868Z,0
2017-03-03T05:24:34.100Z,0
2017-03-03T05:25:35.342Z,0
2017-03-03T05:26:36.674Z,0
2017-03-03T05:27:37.972Z,0
2017-03-03T05:28:39.209Z,0
2017-03-03T05:29:40.447Z,0
2017-03-03T05:30:41.687Z,0
2017-03-03T05:31:42.914Z,0
2017-03-03T05:32:44.153Z,0
2017-03-03T05:33:45.466Z,0
2017-03-03T05:34:46.709Z,0
2017-03-03T05:35:47.938Z,0
2017-03-03T05:36:49.202Z,0
2017-03-03T05:37:50.423Z,0
2017-03-03T05:38:51.862Z,4
2017-03-03T05:39:53.075Z,4
2017-03-03T05:40:54.682Z,0
2017-03-03T05:41:55.943Z,0
2017-03-03T05:42:57.151Z,4
2017-03-03T05:43:58.384Z,4
2017-03-03T05:44:59.664Z,4
2017-03-03T05:46:00.873Z,8
2017-03-03T05:47:02.115Z,4
2017-03-03T05:48:03.343Z,4
2017-03-03T05:49:04.579Z,8
2017-03-03T05:50:05.807Z,8
2017-03-03T05:51:07.037Z,12
2017-03-03T05:52:08.265Z,12
2017-03-03T05:53:09.600Z,20
2017-03-03T05:54:10.761Z,20
2017-03-03T05:55:12.011Z,24
2017-03-03T05:56:13.254Z,28
2017-03-03T05:57:14.487Z,36
2017-03-03T05:58:15.855Z,44
2017-03-03T05:59:17.184Z,48
2017-03-03T06:00:18.319Z,60
2017-03-03T06:01:19.578Z,68
2017-03-03T06:02:20.796Z,72
2017-03-03T06:03:22.027Z,80
2017-03-03T06:04:23.256Z,88
2017-03-03T06:05:24.510Z,100
2017-03-03T06:06:25.745Z,112
2017-03-03T06:07:26.980Z,128
2017-03-03T06:08:28.301Z,140
2017-03-03T06:09:29.540Z,156
2017-03-03T06:10:30.886Z,172
2017-03-03T06:11:32.240Z,188
2017-03-03T06:12:33.480Z,204
2017-03-03T06:13:34.710Z,224
2017-03-03T06:14:35.968Z,248
2017-03-03T06:15:37.208Z,268
2017-03-03T06:16:38.469Z,288
2017-03-03T06:17:39.728Z,316
2017-03-03T06:18:40.933Z,344
2017-03-03T06:19:42.164Z,368
2017-03-03T06:20:43.455Z,400
2017-03-03T06:21:44.690Z,428
2017-03-03T06:22:45.993Z,464
2017-03-03T06:23:47.224Z,500
2017-03-03T06:24:48.568Z,532
2017-03-03T06:25:49.812Z,568
2017-03-03T06:26:51.151Z,600
2017-03-03T06:27:52.393Z,632
2017-03-03T06:28:53.646Z,672
2017-03-03T06:29:54.860Z,716
2017-03-03T06:30:56.238Z,772
2017-03-03T06:31:57.576Z,832
2017-03-03T06:32:58.806Z,900
2017-03-03T06:34:00.041Z,972
2017-03-03T06:35:01.281Z,1052
2017-03-03T06:36:02.552Z,1128
2017-03-03T06:37:03.864Z,1232
2017-03-03T06:38:05.129Z,1364
2017-03-03T06:39:06.368Z,1544
2017-03-03T06:40:07.599Z,1776
2017-03-03T06:41:08.852Z,1944
2017-03-03T06:42:10.076Z,1992
2017-03-03T06:43:11.342Z,2060
2017-03-03T06:44:12.809Z,2196
2017-03-03T06:45:14.044Z,2288
2017-03-03T06:46:15.273Z,2396
2017-03-03T06:47:16.500Z,2444
2017-03-03T06:48:17.749Z,2352
2017-03-03T06:49:18.987Z,2132
2017-03-03T06:50:20.370Z,2188
2017-03-03T06:51:21.614Z,2668
2017-03-03T06:52:22.841Z,3044
2017-03-03T06:53:24.066Z,3176
2017-03-03T06:54:25.290Z,3264
2017-03-03T06:55:26.542Z,3168
2017-03-03T06:56:27.788Z,3360
2017-03-03T06:57:29.053Z,3992
2017-03-03T06:58:30.284Z,4416
2017-03-03T06:59:31.550Z,4788
2017-03-03T07:00:32.780Z,5156
2017-03-03T07:01:34.021Z,5288
2017-03-03T07:02:35.322Z,5696
2017-03-03T07:03:36.588Z,6012
2017-03-03T07:04:37.828Z,6036
2017-03-03T07:05:39.077Z,6476
2017-03-03T07:06:40.318Z,6572
2017-03-03T07:07:41.576Z,6192
2017-03-03T07:08:42.842Z,7332
2017-03-03T07:09:44.306Z,7656
2017-03-03T07:10:45.598Z,8044
2017-03-03T07:11:46.843Z,8184
2017-03-03T07:12:48.100Z,8272
2017-03-03T07:13:49.380Z,8508
2017-03-03T07:14:50.619Z,8728
2017-03-03T07:15:51.986Z,8836
2017-03-03T07:16:53.204Z,6864
2017-03-03T07:17:54.441Z,9480
2017-03-03T07:18:55.677Z,9708
2017-03-03T07:19:56.917Z,7944
2017-03-03T07:20:58.197Z,7060
2017-03-03T07:21:59.508Z,6548
2017-03-03T07:23:00.738Z,9136
2017-03-03T07:24:02.002Z,10520
2017-03-03T07:25:03.241Z,11024
2017-03-03T07:26:04.471Z,10992
2017-03-03T07:27:05.744Z,11008
2017-03-03T07:28:06.987Z,11272
2017-03-03T07:29:08.220Z,11448
2017-03-03T07:30:09.469Z,11324
2017-03-03T07:31:10.707Z,10820
2017-03-03T07:32:12.038Z,10772
2017-03-03T07:33:13.399Z,10708
2017-03-03T07:34:14.656Z,10316
2017-03-03T07:35:15.899Z,9808
2017-03-03T07:36:17.150Z,9340
2017-03-03T07:37:18.395Z,9160
2017-03-03T07:38:19.744Z,9516
2017-03-03T07:39:20.988Z,10684
2017-03-03T07:40:22.368Z,10592
2017-03-03T07:41:23.633Z,10520
2017-03-03T07:42:24.879Z,10740
2017-03-03T07:43:26.120Z,11420
2017-03-03T07:44:27.387Z,11368
2017-03-03T07:45:28.627Z,11648
2017-03-03T07:46:29.884Z,10848
2017-03-03T07:47:31.145Z,10732
2017-03-03T07:48:32.374Z,12072
2017-03-03T07:49:33.613Z,13228
2017-03-03T07:50:34.971Z,10664
2017-03-03T07:51:36.184Z,9640
2017-03-03T07:52:37.421Z,11816
2017-03-03T07:53:38.659Z,14368
2017-03-03T07:54:39.910Z,14816
2017-03-03T07:55:41.187Z,11824
2017-03-03T07:56:42.412Z,10836
2017-03-03T07:57:43.682Z,12024
2017-03-03T07:58:44.953Z,12572
2017-03-03T07:59:46.175Z,10512
2017-03-03T08:00:47.449Z,8812
2017-03-03T08:01:48.686Z,8916
2017-03-03T08:02:49.963Z,10300
2017-03-03T08:03:51.194Z,11292
2017-03-03T08:04:52.473Z,10592
2017-03-03T08:05:53.722Z,11880
2017-03-03T08:06:54.960Z,14012
2017-03-03T08:07:56.203Z,13960
2017-03-03T08:08:57.437Z,13340
2017-03-03T08:09:58.686Z,13276
2017-03-03T08:10:59.941Z,12112
2017-03-03T08:12:01.343Z,11028
2017-03-03T08:13:02.589Z,10496
2017-03-03T08:14:03.844Z,11588
2017-03-03T08:15:05.087Z,13928
2017-03-03T08:16:06.363Z,14140
2017-03-03T08:17:07.674Z,13224
2017-03-03T08:18:08.925Z,13212
2017-03-03T08:19:10.271Z,13728
2017-03-03T08:20:11.528Z,14624
2017-03-03T08:21:12.806Z,14976
2017-03-03T08:22:14.250Z,14944
2017-03-03T08:23:15.571Z,15136
2017-03-03T08:24:16.804Z,14460
2017-03-03T08:25:18.075Z,14608
2017-03-03T08:26:19.335Z,15168
2017-03-03T08:27:20.564Z,15424
2017-03-03T08:28:21.847Z,16000
2017-03-03T08:29:23.062Z,15872
2017-03-03T08:30:24.372Z,15968
2017-03-03T08:31:25.628Z,16096
2017-03-03T08:32:26.867Z,15520
2017-03-03T08:33:28.146Z,15552
2017-03-03T08:34:29.389Z,14912
2017-03-03T08:35:30.611Z,15360
2017-03-03T08:36:31.937Z,16128
2017-03-03T08:37:33.160Z,16288
2017-03-03T08:38:34.405Z,17120
2017-03-03T08:39:35.657Z,17120
2017-03-03T08:40:36.913Z,18272
2017-03-03T08:41:38.171Z,17760
2017-03-03T08:42:39.422Z,17280
2017-03-03T08:43:40.679Z,16736
2017-03-03T08:44:41.923Z,15584
2017-03-03T08:45:43.176Z,15936
2017-03-03T08:46:44.397Z,15840
2017-03-03T08:47:45.694Z,14612
2017-03-03T08:48:46.955Z,14792
2017-03-03T08:49:48.216Z,15520
2017-03-03T08:50:49.507Z,15040
2017-03-03T08:51:50.734Z,14456
2017-03-03T08:52:52.047Z,15648
2017-03-03T08:53:53.312Z,15616
2017-03-03T08:54:54.756Z,16832
2017-03-03T08:55:56.021Z,16352
2017-03-03T08:56:57.259Z,16928
2017-03-03T08:57:58.561Z,18944
2017-03-03T08:58:59.841Z,20128
2017-03-03T09:00:01.118Z,18976
2017-03-03T09:01:02.489Z,18752
2017-03-03T09:02:03.836Z,18464
2017-03-03T09:03:05.101Z,19744
2017-03-03T09:04:06.332Z,19840
2017-03-03T09:05:07.719Z,19584
2017-03-03T09:06:08.893Z,19424
2017-03-03T09:07:10.181Z,19584
2017-03-03T09:08:11.462Z,19392
2017-03-03T09:09:12.704Z,21696
2017-03-03T09:10:13.984Z,21504
2017-03-03T09:11:15.194Z,22976
2017-03-03T09:12:16.598Z,23232
2017-03-03T09:13:17.865Z,19328
2017-03-03T09:14:19.115Z,23264
2017-03-03T09:15:20.366Z,22752
2017-03-03T09:16:21.611Z,22720
2017-03-03T09:17:22.863Z,23328
2017-03-03T09:18:24.263Z,23520
2017-03-03T09:19:25.507Z,23200
2017-03-03T09:20:26.750Z,24288
2017-03-03T09:21:28.022Z,23840
2017-03-03T09:22:29.269Z,22816
2017-03-03T09:23:30.562Z,19904
2017-03-03T09:24:31.817Z,18496
2017-03-03T09:25:33.059Z,17632
2017-03-03T09:26:34.341Z,18560
2017-03-03T09:27:35.597Z,18656
2017-03-03T09:28:36.945Z,17152
2017-03-03T09:29:38.231Z,16736
2017-03-03T09:30:39.600Z,19136
2017-03-03T09:31:40.862Z,20864
2017-03-03T09:32:42.151Z,20640
2017-03-03T09:33:43.411Z,19488
2017-03-03T09:34:44.722Z,18528
2017-03-03T09:35:46.016Z,17216
2017-03-03T09:36:47.318Z,16960
2017-03-03T09:37:48.550Z,19360
2017-03-03T09:38:49.804Z,19328
2017-03-03T09:39:51.070Z,18752
2017-03-03T09:40:52.348Z,17632
2017-03-03T09:41:53.616Z,17056
2017-03-03T09:42:54.918Z,16448
2017-03-03T09:43:56.183Z,16608
2017-03-03T09:44:57.454Z,15564
2017-03-03T09:45:58.703Z,14944
2017-03-03T09:46:59.977Z,15560
2017-03-03T09:48:01.214Z,15904
2017-03-03T09:49:02.511Z,16000
2017-03-03T09:50:03.851Z,16512
2017-03-03T09:51:05.104Z,15152
2017-03-03T09:52:06.361Z,14280
2017-03-03T09:53:07.612Z,14036
2017-03-03T09:54:08.883Z,13768
2017-03-03T09:55:10.180Z,13768
2017-03-03T09:56:11.455Z,13444
2017-03-03T09:57:12.675Z,13096
2017-03-03T09:58:13.938Z,12948
2017-03-03T09:59:15.170Z,12432
2017-03-03T10:00:16.436Z,12168
2017-03-03T10:01:17.783Z,12152
2017-03-03T10:02:19.029Z,12232
2017-03-03T10:03:20.288Z,12336
2017-03-03T10:04:21.552Z,12392
2017-03-03T10:05:22.774Z,12300
2017-03-03T10:06:24.121Z,12352
2017-03-03T10:07:25.396Z,12656
2017-03-03T10:08:26.644Z,13376
2017-03-03T10:09:27.986Z,13964
2017-03-03T10:10:29.231Z,14544
2017-03-03T10:11:30.490Z,14912
2017-03-03T10:12:31.738Z,15500
2017-03-03T10:13:32.978Z,15872
2017-03-03T10:14:34.243Z,16032
2017-03-03T10:15:35.511Z,16864
2017-03-03T10:16:36.734Z,16640
2017-03-03T10:17:37.976Z,17792
2017-03-03T10:18:39.224Z,19424
2017-03-03T10:19:40.493Z,20128
2017-03-03T10:20:41.768Z,19776
2017-03-03T10:21:42.992Z,20416
2017-03-03T10:22:44.256Z,20160
2017-03-03T10:23:45.500Z,19936
2017-03-03T10:24:46.847Z,19584
2017-03-03T10:25:48.077Z,19040
2017-03-03T10:26:49.329Z,19040
2017-03-03T10:27:50.587Z,18336
2017-03-03T10:28:51.817Z,18560
2017-03-03T10:29:53.059Z,19104
2017-03-03T10:30:54.308Z,19328
2017-03-03T10:31:55.910Z,19552
2017-03-03T10:32:57.044Z,20224
2017-03-03T10:33:58.341Z,20320
2017-03-03T10:34:59.582Z,21664
2017-03-03T10:36:00.802Z,21504
2017-03-03T10:37:02.051Z,21408
2017-03-03T10:38:03.303Z,21888
2017-03-03T10:39:04.568Z,22528
2017-03-03T10:40:05.849Z,21536
2017-03-03T10:41:07.094Z,24288
2017-03-03T10:42:08.350Z,25216
2017-03-03T10:43:09.606Z,24896
2017-03-03T10:44:10.975Z,24736
2017-03-03T10:45:12.296Z,26624
2017-03-03T10:46:13.544Z,24160
2017-03-03T10:47:14.793Z,25408
2017-03-03T10:48:16.091Z,25504
2017-03-03T10:49:17.369Z,23936
2017-03-03T10:50:18.619Z,23872
2017-03-03T10:51:19.819Z,22624
2017-03-03T10:52:21.075Z,22400
2017-03-03T10:53:22.310Z,22016
2017-03-03T10:54:23.560Z,22368
2017-03-03T10:55:24.914Z,24448
2017-03-03T10:56:26.167Z,23360
2017-03-03T10:57:27.455Z,21856
2017-03-03T10:58:28.681Z,20352
2017-03-03T10:59:29.964Z,19296
2017-03-03T11:00:31.216Z,17056
2017-03-03T11:01:32.540Z,14792
2017-03-03T11:02:33.769Z,14112
2017-03-03T11:03:35.056Z,14008
2017-03-03T11:04:36.322Z,14036
2017-03-03T11:05:37.569Z,13956
2017-03-03T11:06:38.797Z,13724
2017-03-03T11:07:40.109Z,13340
2017-03-03T11:08:41.985Z,12944
2017-03-03T11:09:43.233Z,12692
2017-03-03T11:10:44.474Z,12512
2017-03-03T11:11:45.854Z,12308
2017-03-03T11:12:46.998Z,12188
2017-03-03T11:13:48.262Z,12036
2017-03-03T11:14:49.520Z,11848
2017-03-03T11:15:50.766Z,11756
2017-03-03T11:16:52.010Z,11588
2017-03-03T11:17:53.267Z,11472
2017-03-03T11:18:54.664Z,11332
2017-03-03T11:19:55.925Z,11300
2017-03-03T11:20:57.166Z,11288
2017-03-03T11:21:58.413Z,11344
2017-03-03T11:22:59.623Z,11444
2017-03-03T11:24:00.868Z,11460
2017-03-03T11:25:02.194Z,11352
2017-03-03T11:26:03.449Z,11156
2017-03-03T11:27:04.718Z,10828
2017-03-03T11:28:05.968Z,10576
2017-03-03T11:29:07.199Z,10316
2017-03-03T11:30:08.427Z,10104
2017-03-03T11:31:09.701Z,10020
2017-03-03T11:32:10.945Z,10008
2017-03-03T11:33:12.195Z,10012
2017-03-03T11:34:13.432Z,10132
2017-03-03T11:35:14.679Z,10332
2017-03-03T11:36:15.941Z,10532
2017-03-03T11:37:17.161Z,10680
2017-03-03T11:38:18.401Z,10792
2017-03-03T11:39:19.678Z,10864
2017-03-03T11:40:20.922Z,10848
2017-03-03T11:41:22.186Z,10744
2017-03-03T11:42:23.457Z,10640
2017-03-03T11:43:24.687Z,10468
2017-03-03T11:44:25.935Z,10228
2017-03-03T11:45:27.312Z,9976
2017-03-03T11:46:28.462Z,9804
2017-03-03T11:47:29.725Z,9616
2017-03-03T11:48:30.964Z,9548
2017-03-03T11:49:32.211Z,9596
2017-03-03T11:50:33.450Z,9624
2017-03-03T11:51:34.753Z,9652
2017-03-03T11:52:35.987Z,9668
2017-03-03T11:53:37.234Z,9656
2017-03-03T11:54:38.460Z,9592
2017-03-03T11:55:39.718Z,9492
2017-03-03T11:56:41.038Z,9340
2017-03-03T11:57:42.274Z,9168
2017-03-03T11:58:43.553Z,9108
2017-03-03T11:59:44.771Z,9156
2017-03-03T12:00:46.010Z,9356
2017-03-03T12:01:47.271Z,9780
2017-03-03T12:02:48.521Z,10260
2017-03-03T12:03:49.762Z,10584
2017-03-03T12:04:50.999Z,10712
2017-03-03T12:05:52.278Z,10816
2017-03-03T12:06:53.501Z,10980
2017-03-03T12:07:54.827Z,11252
2017-03-03T12:08:56.128Z,11712
2017-03-03T12:09:57.424Z,12320
2017-03-03T12:10:58.693Z,13008
2017-03-03T12:11:59.955Z,13932
2017-03-03T12:13:01.221Z,14716
2017-03-03T12:14:02.441Z,15112
2017-03-03T12:15:03.687Z,15336
2017-03-03T12:16:04.933Z,15492
2017-03-03T12:17:06.189Z,15356
2017-03-03T12:18:07.438Z,14600
2017-03-03T12:19:08.685Z,14408
2017-03-03T12:20:09.928Z,14396
2017-03-03T12:21:11.167Z,13928
2017-03-03T12:22:12.418Z,13340
2017-03-03T12:23:13.817Z,12848
2017-03-03T12:24:15.064Z,12612
2017-03-03T12:25:16.325Z,12476
2017-03-03T12:26:17.555Z,12244
2017-03-03T12:27:18.791Z,11964
2017-03-03T12:28:20.095Z,11840
2017-03-03T12:29:21.320Z,11864
2017-03-03T12:30:22.626Z,11924
2017-03-03T12:31:23.979Z,12152
2017-03-03T12:32:25.217Z,12624
2017-03-03T12:33:26.462Z,12688
2017-03-03T12:34:27.696Z,12140
2017-03-03T12:35:28.958Z,11572
2017-03-03T12:36:30.175Z,11384
2017-03-03T12:37:31.524Z,11188
2017-03-03T12:38:32.764Z,11304
2017-03-03T12:39:34.074Z,11376
2017-03-03T12:40:35.311Z,11308
2017-03-03T12:41:36.538Z,11064
2017-03-03T12:42:37.995Z,10896
2017-03-03T12:43:39.227Z,10584
2017-03-03T12:44:40.467Z,10812
2017-03-03T12:45:41.706Z,11100
2017-03-03T12:46:43.021Z,11024
2017-03-03T12:47:44.266Z,11304
2017-03-03T12:48:45.501Z,11500
2017-03-03T12:49:46.752Z,11220
2017-03-03T12:50:47.992Z,10788
2017-03-03T12:51:49.241Z,10424
2017-03-03T12:52:50.499Z,10268
2017-03-03T12:53:51.886Z,10020
2017-03-03T12:54:53.051Z,9264
2017-03-03T12:55:54.307Z,9228
2017-03-03T12:56:55.545Z,9084
2017-03-03T12:57:56.795Z,8392
2017-03-03T12:58:58.045Z,7524
2017-03-03T12:59:59.294Z,6900
2017-03-03T13:01:00.623Z,6700
2017-03-03T13:02:01.972Z,6932
2017-03-03T13:03:03.211Z,7608
2017-03-03T13:04:04.447Z,8448
2017-03-03T13:05:05.706Z,8732
2017-03-03T13:06:06.966Z,8340
2017-03-03T13:07:08.229Z,7904
2017-03-03T13:08:09.474Z,7836
2017-03-03T13:09:10.717Z,8100
2017-03-03T13:10:12.075Z,8300
2017-03-03T13:11:13.313Z,8200
2017-03-03T13:12:14.597Z,8032
2017-03-03T13:13:15.827Z,8052
2017-03-03T13:14:17.063Z,7988
2017-03-03T13:15:18.380Z,7648
2017-03-03T13:16:19.611Z,7388
2017-03-03T13:17:20.864Z,7416
2017-03-03T13:18:22.176Z,7656
2017-03-03T13:19:23.418Z,8008
2017-03-03T13:20:24.742Z,8312
2017-03-03T13:21:25.975Z,8428
2017-03-03T13:22:27.217Z,8608
2017-03-03T13:23:28.472Z,9012
2017-03-03T13:24:29.707Z,9512
2017-03-03T13:25:30.954Z,9744
2017-03-03T13:26:32.206Z,9656
2017-03-03T13:27:33.453Z,9316
2017-03-03T13:28:34.701Z,8820
2017-03-03T13:29:35.940Z,8428
2017-03-03T13:30:37.193Z,8008
2017-03-03T13:31:38.494Z,7676
2017-03-03T13:32:39.738Z,7388
2017-03-03T13:33:40.988Z,7052
2017-03-03T13:34:42.286Z,6716
2017-03-03T13:35:43.522Z,6520
2017-03-03T13:36:44.772Z,6616
2017-03-03T13:37:46.033Z,6700
2017-03-03T13:38:47.274Z,6656
2017-03-03T13:39:48.586Z,6692
2017-03-03T13:40:49.841Z,6740
2017-03-03T13:41:51.103Z,6708
2017-03-03T13:42:52.359Z,6572
2017-03-03T13:43:53.606Z,6388
2017-03-03T13:44:54.885Z,6240
2017-03-03T13:45:56.149Z,6432
2017-03-03T13:46:57.389Z,6760
2017-03-03T13:47:58.631Z,6836
2017-03-03T13:48:59.887Z,6776
2017-03-03T13:50:01.197Z,6732
2017-03-03T13:51:02.468Z,6716
2017-03-03T13:52:03.700Z,6624
2017-03-03T13:53:04.931Z,6372
2017-03-03T13:54:06.180Z,6116
2017-03-03T13:55:07.448Z,6016
2017-03-03T13:56:08.689Z,6184
2017-03-03T13:57:09.948Z,6360
2017-03-03T13:58:11.178Z,6428
2017-03-03T13:59:12.434Z,6640
2017-03-03T14:00:13.689Z,6844
2017-03-03T14:01:14.914Z,6888
2017-03-03T14:02:16.215Z,6696